createdAt,value
2019-01-11T00:00:58.946Z,9.93
2019-01-11T00:03:29.153Z,8.73
2019-01-11T00:05:58.364Z,8.80
2019-01-11T00:08:26.874Z,8.57
2019-01-11T00:10:55.434Z,9.03
2019-01-11T00:13:24.090Z,8.23
2019-01-11T00:15:52.689Z,9.93
2019-01-11T00:18:21.234Z,8.53
2019-01-11T00:20:49.930Z,8.30
2019-01-11T00:23:18.562Z,8.27
2019-01-11T00:25:47.185Z,8.20
2019-01-11T00:28:15.835Z,7.77
2019-01-11T00:30:44.406Z,7.30
2019-01-11T00:33:12.991Z,6.63
2019-01-11T00:35:41.549Z,6.00
2019-01-11T00:38:10.366Z,7.10
2019-01-11T00:40:39.172Z,7.23
2019-01-11T00:43:07.814Z,6.93
2019-01-11T00:45:36.535Z,6.57
2019-01-11T00:48:05.367Z,6.50
2019-01-11T00:50:33.916Z,6.60
2019-01-11T00:53:02.601Z,7.10
2019-01-11T00:55:31.219Z,7.03
2019-01-11T00:57:59.773Z,6.63
2019-01-11T01:00:28.662Z,6.20
2019-01-11T01:02:57.305Z,6.87
2019-01-11T01:05:26.033Z,7.47
2019-01-11T01:07:54.996Z,7.00
2019-01-11T01:10:24.003Z,7.57
2019-01-11T01:12:53.052Z,7.53
2019-01-11T01:15:21.875Z,7.40
2019-01-11T01:17:50.538Z,7.37
2019-01-11T01:20:19.334Z,7.53
2019-01-11T01:22:47.981Z,7.33
2019-01-11T01:25:16.874Z,7.60
2019-01-11T01:27:45.513Z,8.03
2019-01-11T01:30:20.902Z,7.13
2019-01-11T01:32:49.614Z,7.17
2019-01-11T01:35:18.347Z,7.23
2019-01-11T01:37:47.218Z,7.20
2019-01-11T01:40:17.218Z,6.97
2019-01-11T01:42:45.897Z,6.93
2019-01-11T01:45:18.278Z,7.77
2019-01-11T01:47:47.039Z,7.03
2019-01-11T01:50:15.954Z,7.13
2019-01-11T01:53:03.842Z,8.07
2019-01-11T01:55:32.435Z,7.23
2019-01-11T01:58:01.063Z,8.47
2019-01-11T02:00:29.870Z,8.70
2019-01-11T02:02:58.487Z,7.30
2019-01-11T02:05:27.150Z,7.90
2019-01-11T02:07:55.779Z,8.23
2019-01-11T02:10:24.466Z,8.50
2019-01-11T02:12:53.067Z,8.93
2019-01-11T02:15:21.738Z,8.87
2019-01-11T02:18:11.126Z,8.13
2019-01-11T02:20:40.221Z,8.13
2019-01-11T02:23:08.835Z,7.70
2019-01-11T02:25:37.476Z,9.20
2019-01-11T02:28:06.117Z,8.20
2019-01-11T02:30:34.703Z,8.77
2019-01-11T02:33:03.521Z,8.73
2019-01-11T02:35:32.224Z,9.03
2019-01-11T02:38:00.775Z,8.07
2019-01-11T02:40:29.358Z,8.30
2019-01-11T02:42:58.126Z,8.73
2019-01-11T02:45:26.746Z,8.20
2019-01-11T02:47:55.459Z,8.43
2019-01-11T02:50:24.173Z,8.73
2019-01-11T02:52:52.951Z,8.53
2019-01-11T02:55:21.623Z,9.30
2019-01-11T02:57:50.551Z,8.13
2019-01-11T03:00:20.933Z,7.87
2019-01-11T03:02:49.536Z,7.57
2019-01-11T03:05:18.835Z,7.60
2019-01-11T03:07:47.721Z,8.13
2019-01-11T03:10:18.821Z,8.53
2019-01-11T03:12:47.767Z,8.13
2019-01-11T03:15:17.712Z,8.27
2019-01-11T03:17:46.675Z,8.10
2019-01-11T03:20:17.529Z,8.37
2019-01-11T03:22:46.450Z,8.23
2019-01-11T03:25:16.703Z,8.10
2019-01-11T03:27:45.288Z,7.13
2019-01-11T03:30:18.965Z,8.37
2019-01-11T03:32:47.577Z,9.03
2019-01-11T03:35:17.567Z,8.43
2019-01-11T03:37:47.741Z,8.10
2019-01-11T03:40:19.290Z,8.53
2019-01-11T03:42:48.026Z,8.90
2019-01-11T03:45:19.639Z,8.57
2019-01-11T03:47:48.446Z,8.53
2019-01-11T03:50:19.503Z,8.80
2019-01-11T03:52:48.463Z,8.90
2019-01-11T03:55:18.057Z,9.30
2019-01-11T03:57:46.935Z,9.83
2019-01-11T04:00:22.970Z,8.57
2019-01-11T04:02:52.503Z,9.07
2019-01-11T04:05:21.711Z,8.73
2019-01-11T04:07:50.402Z,9.03
2019-01-11T04:10:21.035Z,10.17
2019-01-11T04:12:49.677Z,9.27
2019-01-11T04:15:20.770Z,8.90
2019-01-11T04:18:08.778Z,9.03
2019-01-11T04:20:37.475Z,8.80
2019-01-11T04:23:06.278Z,8.93
2019-01-11T04:25:36.451Z,8.90
2019-01-11T04:28:05.756Z,10.70
2019-01-11T04:30:34.373Z,8.83
2019-01-11T04:33:02.990Z,9.17
2019-01-11T04:35:31.611Z,9.80
2019-01-11T04:38:00.398Z,8.63
2019-01-11T04:40:34.129Z,8.13
2019-01-11T04:42:59.363Z,9.13
2019-01-11T04:45:27.906Z,8.90
2019-01-11T04:47:56.578Z,8.97
2019-01-11T04:50:25.126Z,9.43
2019-01-11T04:52:53.749Z,9.83
2019-01-11T04:55:22.261Z,8.77
2019-01-11T04:58:10.185Z,9.43
2019-01-11T05:00:38.860Z,9.63
2019-01-11T05:03:07.447Z,10.13
2019-01-11T05:05:36.189Z,9.60
2019-01-11T05:08:05.037Z,9.90
2019-01-11T05:10:33.603Z,9.47
2019-01-11T05:13:03.941Z,9.93
2019-01-11T05:15:32.422Z,9.97
2019-01-11T05:18:00.973Z,9.87
2019-01-11T05:20:29.834Z,9.97
2019-01-11T05:22:58.482Z,9.33
2019-01-11T05:25:27.050Z,9.47
2019-01-11T05:27:55.594Z,9.87
2019-01-11T05:30:24.183Z,9.67
2019-01-11T05:32:52.766Z,9.37
2019-01-11T05:35:21.399Z,11.13
2019-01-11T05:37:49.956Z,9.70
2019-01-11T05:40:18.999Z,10.20
2019-01-11T05:42:47.796Z,9.93
2019-01-11T05:45:18.342Z,10.87
2019-01-11T05:47:47.030Z,9.87
2019-01-11T05:50:23.431Z,11.03
2019-01-11T05:52:47.477Z,10.27
2019-01-11T05:55:20.769Z,9.03
2019-01-11T05:57:56.982Z,10.13
2019-01-11T06:00:25.650Z,10.47
2019-01-11T06:02:54.643Z,9.30
2019-01-11T06:05:23.229Z,9.97
2019-01-11T06:07:52.887Z,10.13
2019-01-11T06:10:21.502Z,9.47
2019-01-11T06:12:50.160Z,10.57
2019-01-11T06:15:18.738Z,9.17
2019-01-11T06:17:48.350Z,9.03
2019-01-11T06:20:17.833Z,10.00
2019-01-11T06:22:46.502Z,10.93
2019-01-11T06:25:15.158Z,9.97
2019-01-11T06:27:43.842Z,10.07
2019-01-11T06:30:14.365Z,9.13
2019-01-11T06:32:43.051Z,9.00
2019-01-11T06:35:11.717Z,9.27
2019-01-11T06:37:40.450Z,9.40
2019-01-11T06:40:11.287Z,9.73
2019-01-11T06:42:40.073Z,10.13
2019-01-11T06:45:10.811Z,10.50
2019-01-11T06:47:39.904Z,10.20
2019-01-11T06:50:16.566Z,10.43
2019-01-11T06:52:45.202Z,9.40
2019-01-11T06:55:14.345Z,9.40
2019-01-11T06:57:44.398Z,10.30
2019-01-11T07:00:19.878Z,9.47
2019-01-11T07:02:53.644Z,9.90
2019-01-11T07:05:22.302Z,9.43
2019-01-11T07:07:50.871Z,10.10
2019-01-11T07:10:22.038Z,9.90
2019-01-11T07:12:50.874Z,10.23
2019-01-11T07:15:19.612Z,10.67
2019-01-11T07:17:48.259Z,9.10
2019-01-11T07:20:17.054Z,9.33
2019-01-11T07:22:45.951Z,10.20
2019-01-11T07:25:16.817Z,9.30
2019-01-11T07:27:47.138Z,10.10
2019-01-11T07:30:16.642Z,9.40
2019-01-11T07:32:45.794Z,11.37
2019-01-11T07:35:15.182Z,9.93
2019-01-11T07:37:45.505Z,8.90
2019-01-11T07:40:14.314Z,9.27
2019-01-11T07:42:42.916Z,10.20
2019-01-11T07:45:13.575Z,10.23
2019-01-11T07:47:42.541Z,10.30
2019-01-11T07:50:11.393Z,12.00
2019-01-11T07:52:40.252Z,9.30
2019-01-11T07:55:14.030Z,10.00
2019-01-11T07:57:46.453Z,10.13
2019-01-11T08:00:15.504Z,11.07
2019-01-11T08:02:44.362Z,9.33
2019-01-11T08:05:14.520Z,10.37
2019-01-11T08:07:43.346Z,9.73
2019-01-11T08:10:14.475Z,10.90
2019-01-11T08:12:43.094Z,9.40
2019-01-11T08:15:14.615Z,10.17
2019-01-11T08:17:43.187Z,11.10
2019-01-11T08:20:11.963Z,10.50
2019-01-11T08:22:41.819Z,12.43
2019-01-11T08:25:12.374Z,11.43
2019-01-11T08:27:41.293Z,12.63
2019-01-11T08:30:16.683Z,11.20
2019-01-11T08:32:45.628Z,10.53
2019-01-11T08:35:15.155Z,12.13
2019-01-11T08:37:43.961Z,10.67
2019-01-11T08:40:13.498Z,10.73
2019-01-11T08:42:42.231Z,11.07
2019-01-11T08:45:14.112Z,11.57
2019-01-11T08:47:43.193Z,11.40
2019-01-11T08:50:17.799Z,11.23
2019-01-11T08:52:46.590Z,11.63
2019-01-11T08:55:15.374Z,11.53
2019-01-11T08:57:43.956Z,12.17
2019-01-11T09:00:16.674Z,10.27
2019-01-11T09:02:45.222Z,11.10
2019-01-11T09:05:14.533Z,11.27
2019-01-11T09:07:43.466Z,11.17
2019-01-11T09:10:22.650Z,10.90
2019-01-11T09:12:47.308Z,12.37
2019-01-11T09:15:15.958Z,12.13
2019-01-11T09:18:04.250Z,10.87
2019-01-11T09:20:32.857Z,11.73
2019-01-11T09:23:01.603Z,11.07
2019-01-11T09:25:30.525Z,12.07
2019-01-11T09:28:02.061Z,10.97
2019-01-11T09:30:30.633Z,11.33
2019-01-11T09:32:59.526Z,11.97
2019-01-11T09:35:28.460Z,11.87
2019-01-11T09:37:58.846Z,12.03
2019-01-11T09:40:27.700Z,11.50
2019-01-11T09:42:56.314Z,12.00
2019-01-11T09:45:25.367Z,11.67
2019-01-11T09:47:53.970Z,12.53
2019-01-11T09:50:22.818Z,12.27
2019-01-11T09:52:51.889Z,13.00
2019-01-11T09:55:20.826Z,12.30
2019-01-11T09:57:49.392Z,12.20
2019-01-11T10:00:22.186Z,11.17
2019-01-11T10:02:52.476Z,11.80
2019-01-11T10:05:21.116Z,11.53
2019-01-11T10:07:49.738Z,11.50
2019-01-11T10:10:19.798Z,11.97
2019-01-11T10:12:49.114Z,12.50
2019-01-11T10:15:17.926Z,12.30
2019-01-11T10:17:48.554Z,12.50
2019-01-11T10:20:17.518Z,13.27
2019-01-11T10:22:46.434Z,12.47
2019-01-11T10:25:15.120Z,12.23
2019-01-11T10:27:43.759Z,12.07
2019-01-11T10:30:22.347Z,11.80
2019-01-11T10:32:51.198Z,11.83
2019-01-11T10:35:20.103Z,12.20
2019-01-11T10:37:49.034Z,12.50
2019-01-11T10:40:18.333Z,11.63
2019-01-11T10:42:47.230Z,12.60
2019-01-11T10:45:19.598Z,12.20
2019-01-11T10:47:48.356Z,11.40
2019-01-11T10:50:18.299Z,12.37
2019-01-11T10:52:47.214Z,11.77
2019-01-11T10:55:20.766Z,12.00
2019-01-11T10:57:49.498Z,12.37
2019-01-11T11:00:23.190Z,11.93
2019-01-11T11:02:52.939Z,11.87
2019-01-11T11:05:22.980Z,12.73
2019-01-11T11:07:52.182Z,13.80
2019-01-11T11:10:21.170Z,11.83
2019-01-11T11:12:50.267Z,11.30
2019-01-11T11:15:19.517Z,11.93
2019-01-11T11:17:50.703Z,11.47
2019-01-11T11:20:38.499Z,13.50
2019-01-11T11:23:07.650Z,11.87
2019-01-11T11:25:36.242Z,12.50
2019-01-11T11:28:04.945Z,12.37
2019-01-11T11:30:33.786Z,12.23
2019-01-11T11:33:02.789Z,12.47
2019-01-11T11:35:31.486Z,11.00
2019-01-11T11:38:01.402Z,11.47
2019-01-11T11:40:30.633Z,12.73
2019-01-11T11:42:59.374Z,12.27
2019-01-11T11:45:48.816Z,11.33
2019-01-11T11:48:17.602Z,10.20
2019-01-11T11:50:46.389Z,11.47
2019-01-11T11:53:14.854Z,10.37
2019-01-11T11:55:44.131Z,10.87
2019-01-11T11:58:13.022Z,11.93
2019-01-11T12:01:01.080Z,11.30
2019-01-11T12:03:32.696Z,11.57
2019-01-11T12:06:03.184Z,11.50
2019-01-11T12:08:32.390Z,10.90
2019-01-11T12:11:01.240Z,10.97
2019-01-11T12:13:30.090Z,10.33
2019-01-11T12:15:58.715Z,11.17
2019-01-11T12:18:27.506Z,12.83
2019-01-11T12:20:56.293Z,11.47
2019-01-11T12:23:24.919Z,12.10
2019-01-11T12:25:53.639Z,12.00
2019-01-11T12:28:22.394Z,11.53
2019-01-11T12:30:51.039Z,11.20
2019-01-11T12:33:19.666Z,11.70
2019-01-11T12:35:48.388Z,11.43
2019-01-11T12:38:17.232Z,11.97
2019-01-11T12:40:45.837Z,11.00
2019-01-11T12:43:14.528Z,10.67
2019-01-11T12:45:43.097Z,9.90
2019-01-11T12:48:11.851Z,11.20
2019-01-11T12:50:40.509Z,11.67
2019-01-11T12:53:09.120Z,11.83
2019-01-11T12:55:37.679Z,11.17
2019-01-11T12:58:06.278Z,12.33
2019-01-11T13:00:35.530Z,12.17
2019-01-11T13:03:04.522Z,12.43
2019-01-11T13:05:33.268Z,11.90
2019-01-11T13:08:02.327Z,11.83
2019-01-11T13:10:31.010Z,11.50
2019-01-11T13:12:59.766Z,12.20
2019-01-11T13:15:28.422Z,10.60
2019-01-11T13:17:57.448Z,11.23
2019-01-11T13:20:45.485Z,11.53
2019-01-11T13:23:14.214Z,10.93
2019-01-11T13:25:42.867Z,11.20
2019-01-11T13:28:11.666Z,11.50
2019-01-11T13:30:40.254Z,11.70
2019-01-11T13:33:09.095Z,13.53
2019-01-11T13:35:38.015Z,12.37
2019-01-11T13:38:06.622Z,13.00
2019-01-11T13:40:35.173Z,11.63
2019-01-11T13:43:04.119Z,12.67
2019-01-11T13:45:33.110Z,12.93
2019-01-11T13:48:01.730Z,12.00
2019-01-11T13:50:35.471Z,11.03
2019-01-11T13:53:05.694Z,10.90
2019-01-11T13:55:34.773Z,10.43
2019-01-11T13:58:03.542Z,11.77
2019-01-11T14:00:32.811Z,10.13
2019-01-11T14:03:01.673Z,9.67
2019-01-11T14:05:30.351Z,9.17
2019-01-11T14:07:59.150Z,9.57
2019-01-11T14:10:28.687Z,10.93
2019-01-11T14:12:57.404Z,9.43
2019-01-11T14:15:26.040Z,9.30
2019-01-11T14:17:55.688Z,9.13
2019-01-11T14:20:24.394Z,9.10
2019-01-11T14:22:53.215Z,8.77
2019-01-11T14:25:21.934Z,9.07
2019-01-11T14:27:50.557Z,8.07
2019-01-11T14:30:20.490Z,8.70
2019-01-11T14:32:49.615Z,9.20
2019-01-11T14:35:18.300Z,9.13
2019-01-11T14:37:47.066Z,8.63
2019-01-11T14:40:16.983Z,9.47
2019-01-11T14:42:45.999Z,9.23
2019-01-11T14:45:16.924Z,9.40
2019-01-11T14:47:46.029Z,10.20
2019-01-11T14:50:19.499Z,9.40
2019-01-11T14:52:48.254Z,9.80
2019-01-11T14:55:16.843Z,9.67
2019-01-11T14:57:45.682Z,11.43
2019-01-11T15:00:17.619Z,9.77
2019-01-11T15:02:46.447Z,10.10
2019-01-11T15:05:16.277Z,10.00
2019-01-11T15:07:46.110Z,9.80
2019-01-11T15:10:16.456Z,9.37
2019-01-11T15:12:46.459Z,8.63
2019-01-11T15:15:16.164Z,9.50
2019-01-11T15:17:44.880Z,10.43
2019-01-11T15:20:15.546Z,9.63
2019-01-11T15:22:44.454Z,10.17
2019-01-11T15:25:13.583Z,10.10
2019-01-11T15:27:42.191Z,10.47
2019-01-11T15:30:14.198Z,9.00
2019-01-11T15:32:43.454Z,9.60
2019-01-11T15:35:12.110Z,9.40
2019-01-11T15:37:40.771Z,10.00
2019-01-11T15:40:15.758Z,9.13
2019-01-11T15:42:44.631Z,10.57
2019-01-11T15:45:13.650Z,9.77
2019-01-11T15:47:42.798Z,8.93
2019-01-11T15:50:40.081Z,8.50
2019-01-11T15:53:29.783Z,9.60
2019-01-11T15:55:59.572Z,9.10
2019-01-11T15:58:28.367Z,9.13
2019-01-11T16:00:56.947Z,10.00
2019-01-11T16:03:25.628Z,11.77
2019-01-11T16:06:22.884Z,9.83
2019-01-11T16:09:12.805Z,10.23
2019-01-11T16:12:02.668Z,10.13
2019-01-11T16:14:37.323Z,10.07
2019-01-11T16:17:12.008Z,11.17
2019-01-11T16:19:40.798Z,10.77
2019-01-11T16:22:30.273Z,10.33
2019-01-11T16:24:58.893Z,10.67
2019-01-11T16:27:27.547Z,10.73
2019-01-11T16:29:56.170Z,11.33
2019-01-11T16:32:24.767Z,11.37
2019-01-11T16:34:59.100Z,11.67
2019-01-11T16:37:27.683Z,11.07
2019-01-11T16:39:56.519Z,12.23
2019-01-11T16:42:25.195Z,10.50
2019-01-11T16:44:53.710Z,12.07
2019-01-11T16:47:22.486Z,13.40
2019-01-11T16:49:51.041Z,11.87
2019-01-11T16:52:19.656Z,12.50
2019-01-11T16:54:48.287Z,10.23
2019-01-11T16:57:16.908Z,12.10
2019-01-11T16:59:45.786Z,11.10
2019-01-11T17:02:14.466Z,10.63
2019-01-11T17:04:43.036Z,10.73
2019-01-11T17:07:11.799Z,10.00
2019-01-11T17:09:40.381Z,11.13
2019-01-11T17:12:09.344Z,10.33
2019-01-11T17:14:38.005Z,12.10
2019-01-11T17:17:06.722Z,13.73
2019-01-11T17:19:35.327Z,10.27
2019-01-11T17:22:04.166Z,10.73
2019-01-11T17:24:32.964Z,11.10
2019-01-11T17:27:01.635Z,10.50
2019-01-11T17:29:30.230Z,10.30
2019-01-11T17:31:58.858Z,9.80
2019-01-11T17:34:27.416Z,10.67
2019-01-11T17:36:57.667Z,10.60
2019-01-11T17:39:26.249Z,9.57
2019-01-11T17:41:54.931Z,8.60
2019-01-11T17:44:25.241Z,9.13
2019-01-11T17:46:53.996Z,9.53
2019-01-11T17:49:22.791Z,8.87
2019-01-11T17:51:51.423Z,8.67
2019-01-11T17:54:19.938Z,9.57
2019-01-11T17:56:48.674Z,9.03
2019-01-11T17:59:17.457Z,9.60
2019-01-11T18:02:05.439Z,8.93
2019-01-11T18:04:34.320Z,9.87
2019-01-11T18:07:02.863Z,9.53
2019-01-11T18:09:31.625Z,10.13
2019-01-11T18:12:00.208Z,10.20
2019-01-11T18:14:28.753Z,9.83
2019-01-11T18:16:57.335Z,10.57
2019-01-11T18:19:26.104Z,9.70
2019-01-11T18:21:54.719Z,11.70
2019-01-11T18:24:23.479Z,10.27
2019-01-11T18:26:53.279Z,11.07
2019-01-11T18:29:22.061Z,9.90
2019-01-11T18:31:50.631Z,9.33
2019-01-11T18:34:19.234Z,10.07
2019-01-11T18:36:47.865Z,10.27
2019-01-11T18:39:16.506Z,10.40
2019-01-11T18:41:45.192Z,12.03
2019-01-11T18:44:13.852Z,9.03
2019-01-11T18:46:42.434Z,9.90
2019-01-11T18:49:13.527Z,11.00
2019-01-11T18:51:42.509Z,9.53
2019-01-11T18:54:11.102Z,10.50
2019-01-11T18:56:39.846Z,11.00
2019-01-11T18:59:08.655Z,9.57
2019-01-11T19:01:37.337Z,9.77
2019-01-11T19:04:06.437Z,8.87
2019-01-11T19:06:35.030Z,10.23
2019-01-11T19:09:05.138Z,9.33
2019-01-11T19:11:33.860Z,9.53
2019-01-11T19:14:02.462Z,10.87
2019-01-11T19:16:31.146Z,10.73
2019-01-11T19:18:59.814Z,10.70
2019-01-11T19:21:28.397Z,9.90
2019-01-11T19:23:56.984Z,8.57
2019-01-11T19:26:25.739Z,8.67
2019-01-11T19:28:55.082Z,9.80
2019-01-11T19:31:23.727Z,9.53
2019-01-11T19:33:52.316Z,9.27
2019-01-11T19:36:20.955Z,9.70
2019-01-11T19:38:51.125Z,7.97
2019-01-11T19:41:20.171Z,9.03
2019-01-11T19:43:48.674Z,8.57
2019-01-11T19:46:17.360Z,8.73
2019-01-11T19:48:46.051Z,8.03
2019-01-11T19:51:14.762Z,8.57
2019-01-11T19:53:43.451Z,8.83
2019-01-11T19:56:12.086Z,9.30
2019-01-11T19:58:40.764Z,9.37
2019-01-11T20:01:09.953Z,8.57
2019-01-11T20:03:38.636Z,9.90
2019-01-11T20:06:07.336Z,9.20
2019-01-11T20:08:36.048Z,9.70
2019-01-11T20:11:05.287Z,9.03
2019-01-11T20:13:33.927Z,8.33
2019-01-11T20:16:02.697Z,8.47
2019-01-11T20:18:31.345Z,9.23
2019-01-11T20:21:00.393Z,8.40
2019-01-11T20:23:34.880Z,8.50
2019-01-11T20:25:59.251Z,8.93
2019-01-11T20:28:27.910Z,9.27
2019-01-11T20:30:57.235Z,8.23
2019-01-11T20:33:25.943Z,8.77
2019-01-11T20:35:54.869Z,7.87
2019-01-11T20:38:23.429Z,8.30
2019-01-11T20:40:52.341Z,8.33
2019-01-11T20:43:20.976Z,8.03
2019-01-11T20:45:49.634Z,8.57
2019-01-11T20:48:18.417Z,9.87
2019-01-11T20:50:47.054Z,9.70
2019-01-11T20:53:15.759Z,9.43
2019-01-11T20:55:44.362Z,8.97
2019-01-11T20:58:12.928Z,8.10
2019-01-11T21:00:41.991Z,9.43
2019-01-11T21:03:10.970Z,8.90
2019-01-11T21:05:40.009Z,8.10
2019-01-11T21:08:08.729Z,7.77
2019-01-11T21:10:37.483Z,7.43
2019-01-11T21:13:07.240Z,9.17
2019-01-11T21:15:36.568Z,8.70
2019-01-11T21:18:05.695Z,7.73
2019-01-11T21:20:35.960Z,7.53
2019-01-11T21:23:04.614Z,9.13
2019-01-11T21:25:33.266Z,9.13
2019-01-11T21:28:21.188Z,9.00
2019-01-11T21:30:49.894Z,8.20
2019-01-11T21:33:18.643Z,8.90
2019-01-11T21:35:47.220Z,8.00
2019-01-11T21:38:15.882Z,8.90
2019-01-11T21:40:44.649Z,9.20
2019-01-11T21:43:14.841Z,9.90
2019-01-11T21:45:43.326Z,8.77
2019-01-11T21:48:11.906Z,9.27
2019-01-11T21:50:40.650Z,8.73
2019-01-11T21:53:09.242Z,9.33
2019-01-11T21:55:37.888Z,10.93
2019-01-11T21:58:06.526Z,10.53
2019-01-11T22:00:37.796Z,10.20
2019-01-11T22:03:07.872Z,10.43
2019-01-11T22:05:36.598Z,9.73
2019-01-11T22:08:05.511Z,10.40
2019-01-11T22:10:34.234Z,9.63
2019-01-11T22:13:02.846Z,9.70
2019-01-11T22:15:31.604Z,10.60
2019-01-11T22:18:00.347Z,10.23
2019-01-11T22:20:29.086Z,10.17
2019-01-11T22:22:57.734Z,10.37
2019-01-11T22:25:28.044Z,9.63
2019-01-11T22:27:56.627Z,9.33
2019-01-11T22:30:30.277Z,10.20
2019-01-11T22:32:56.366Z,9.60
2019-01-11T22:35:24.919Z,8.50
2019-01-11T22:37:53.601Z,9.53
2019-01-11T22:40:23.791Z,8.93
2019-01-11T22:42:56.152Z,9.40
2019-01-11T22:45:24.907Z,10.43
2019-01-11T22:47:53.674Z,9.77
2019-01-11T22:50:22.378Z,9.67
2019-01-11T22:52:52.394Z,9.33
2019-01-11T22:55:21.251Z,9.83
2019-01-11T22:57:49.997Z,10.40
2019-01-11T23:00:46.011Z,10.23
2019-01-11T23:03:17.741Z,9.37
2019-01-11T23:05:47.715Z,9.23
2019-01-11T23:08:18.207Z,9.67
2019-01-11T23:11:15.551Z,8.27
2019-01-11T23:13:44.232Z,8.87
2019-01-11T23:16:15.910Z,8.83
2019-01-11T23:18:45.244Z,9.13
2019-01-11T23:21:13.826Z,9.63
2019-01-11T23:23:42.408Z,8.37
2019-01-11T23:26:11.063Z,8.47
2019-01-11T23:28:39.751Z,8.73
2019-01-11T23:31:09.104Z,8.47
2019-01-11T23:33:37.703Z,8.30
2019-01-11T23:36:06.254Z,8.97
2019-01-11T23:38:34.859Z,8.07
2019-01-11T23:41:03.395Z,7.50
2019-01-11T23:43:32.039Z,8.13
2019-01-11T23:46:00.611Z,8.07
2019-01-11T23:48:29.205Z,7.57
2019-01-11T23:50:57.988Z,8.97
2019-01-11T23:53:26.549Z,8.60
2019-01-11T23:55:55.255Z,7.50
2019-01-11T23:58:23.848Z,8.03
